createdAt,value
2022-07-30T00:00:12.754Z,25.29
2022-07-30T00:02:52.311Z,25.28
2022-07-30T00:05:19.293Z,25.25
2022-07-30T00:07:46.581Z,25.21
2022-07-30T00:10:13.986Z,25.12
2022-07-30T00:12:41.357Z,25.04
2022-07-30T00:15:08.829Z,25.01
2022-07-30T00:17:36.843Z,24.96
2022-07-30T00:20:05.163Z,24.93
2022-07-30T00:22:33.173Z,24.91
2022-07-30T00:25:00.812Z,24.92
2022-07-30T00:27:28.231Z,24.91
2022-07-30T00:29:55.781Z,24.87
2022-07-30T00:32:23.184Z,24.80
2022-07-30T00:34:50.276Z,24.76
2022-07-30T00:37:19.536Z,24.71
2022-07-30T00:39:46.626Z,24.69
2022-07-30T00:42:13.906Z,24.52
2022-07-30T00:44:41.994Z,24.51
2022-07-30T00:47:09.543Z,24.45
2022-07-30T00:49:37.724Z,24.50
2022-07-30T00:52:07.096Z,24.47
2022-07-30T00:54:34.130Z,24.45
2022-07-30T00:57:02.348Z,24.41
2022-07-30T00:59:29.649Z,24.46
2022-07-30T01:01:57.033Z,24.54
2022-07-30T01:04:24.213Z,24.59
2022-07-30T01:06:51.695Z,24.66
2022-07-30T01:09:18.664Z,24.70
2022-07-30T01:11:46.398Z,24.74
2022-07-30T01:14:14.195Z,24.64
2022-07-30T01:16:43.332Z,24.61
2022-07-30T01:19:38.579Z,24.57
2022-07-30T01:22:30.433Z,24.50
2022-07-30T01:25:04.222Z,24.51
2022-07-30T01:27:55.181Z,24.48
2022-07-30T01:30:28.713Z,24.43
2022-07-30T01:32:59.218Z,24.39
2022-07-30T01:35:29.878Z,24.37
2022-07-30T01:38:00.456Z,24.27
2022-07-30T01:40:30.429Z,24.26
2022-07-30T01:43:00.819Z,24.15
2022-07-30T01:45:30.249Z,24.09
2022-07-30T01:48:05.864Z,24.03
2022-07-30T01:50:36.737Z,24.02
2022-07-30T01:53:05.767Z,24.01
2022-07-30T01:55:41.482Z,24.04
2022-07-30T01:58:11.219Z,24.02
2022-07-30T02:00:42.499Z,24.05
2022-07-30T02:03:11.564Z,23.99
2022-07-30T02:05:40.933Z,23.95
2022-07-30T02:08:17.963Z,23.95
2022-07-30T02:10:57.957Z,23.91
2022-07-30T02:13:29.381Z,23.82
2022-07-30T02:16:00.396Z,23.79
2022-07-30T02:18:58.477Z,23.79
2022-07-30T02:21:36.727Z,23.73
2022-07-30T02:24:11.425Z,23.67
2022-07-30T02:26:41.006Z,23.57
2022-07-30T02:29:11.579Z,23.52
2022-07-30T02:31:42.520Z,23.45
2022-07-30T02:34:13.520Z,23.36
2022-07-30T02:36:43.667Z,23.27
2022-07-30T02:39:13.746Z,23.22
2022-07-30T02:41:49.873Z,23.18
2022-07-30T02:44:20.380Z,23.04
2022-07-30T02:46:50.037Z,22.99
2022-07-30T02:49:51.216Z,22.95
2022-07-30T02:52:18.984Z,22.97
2022-07-30T02:54:48.134Z,22.95
2022-07-30T02:57:18.241Z,22.91
2022-07-30T02:59:48.390Z,22.90
2022-07-30T03:02:17.543Z,22.92
2022-07-30T03:04:56.678Z,22.95
2022-07-30T03:07:24.950Z,22.96
2022-07-30T03:09:55.306Z,22.98
2022-07-30T03:12:26.419Z,23.02
2022-07-30T03:14:54.179Z,23.03
2022-07-30T03:17:24.096Z,23.07
2022-07-30T03:19:55.491Z,23.06
2022-07-30T03:22:30.042Z,22.99
2022-07-30T03:24:59.621Z,22.91
2022-07-30T03:27:31.636Z,22.92
2022-07-30T03:30:04.320Z,22.86
2022-07-30T03:32:34.563Z,22.85
2022-07-30T03:35:06.128Z,22.90
2022-07-30T03:37:37.962Z,22.92
2022-07-30T03:40:07.078Z,22.93
2022-07-30T03:42:35.832Z,22.96
2022-07-30T03:45:08.058Z,22.96
2022-07-30T03:47:38.957Z,22.98
2022-07-30T03:50:07.410Z,22.98
2022-07-30T03:52:41.403Z,23.05
2022-07-30T03:55:13.397Z,23.07
2022-07-30T03:57:51.399Z,23.14
2022-07-30T04:00:25.628Z,23.24
2022-07-30T04:02:55.793Z,23.36
2022-07-30T04:05:47.783Z,23.47
2022-07-30T04:08:16.362Z,23.60
2022-07-30T04:10:44.532Z,23.71
2022-07-30T04:13:31.515Z,23.81
2022-07-30T04:16:39.549Z,23.93
2022-07-30T04:18:57.941Z,24.00
2022-07-30T04:21:27.103Z,24.09
2022-07-30T04:24:03.871Z,24.18
2022-07-30T04:26:36.511Z,24.30
2022-07-30T04:29:07.649Z,24.38
2022-07-30T04:31:40.712Z,24.44
2022-07-30T04:34:35.078Z,24.56
2022-07-30T04:37:05.170Z,24.63
2022-07-30T04:39:32.327Z,24.71
2022-07-30T04:42:00.583Z,24.80
2022-07-30T04:44:37.850Z,24.88
2022-07-30T04:47:44.070Z,24.98
2022-07-30T04:50:41.772Z,25.02
2022-07-30T04:53:13.917Z,24.93
2022-07-30T04:55:49.537Z,24.97
2022-07-30T04:58:20.388Z,25.03
2022-07-30T05:00:50.371Z,25.02
2022-07-30T05:03:23.692Z,25.07
2022-07-30T05:05:57.497Z,25.10
2022-07-30T05:08:31.220Z,25.13
2022-07-30T05:11:02.621Z,25.16
2022-07-30T05:13:34.518Z,25.18
2022-07-30T05:16:09.074Z,25.19
2022-07-30T05:18:36.447Z,25.07
2022-07-30T05:21:04.087Z,25.11
2022-07-30T05:23:36.558Z,25.15
2022-07-30T05:26:22.428Z,25.18
2022-07-30T05:28:57.328Z,25.19
2022-07-30T05:31:46.335Z,25.31
2022-07-30T05:34:14.239Z,25.34
2022-07-30T05:36:45.256Z,25.39
2022-07-30T05:39:16.813Z,25.37
2022-07-30T05:41:53.990Z,25.40
2022-07-30T05:44:39.880Z,25.40
2022-07-30T05:47:07.173Z,25.52
2022-07-30T05:49:34.406Z,25.49
2022-07-30T05:52:09.372Z,25.59
2022-07-30T05:54:36.979Z,25.61
2022-07-30T05:57:16.334Z,25.64
2022-07-30T05:59:44.143Z,25.68
2022-07-30T06:02:24.226Z,25.71
2022-07-30T06:05:08.893Z,25.84
2022-07-30T06:07:36.202Z,25.90
2022-07-30T06:10:06.179Z,25.92
2022-07-30T06:12:34.330Z,25.99
2022-07-30T06:15:02.040Z,26.18
2022-07-30T06:17:41.225Z,26.40
2022-07-30T06:20:22.573Z,26.60
2022-07-30T06:22:58.554Z,26.78
2022-07-30T06:25:35.610Z,26.96
2022-07-30T06:28:27.828Z,27.10
2022-07-30T06:30:54.941Z,27.05
2022-07-30T06:33:24.394Z,27.18
2022-07-30T06:35:51.778Z,27.23
2022-07-30T06:38:21.932Z,27.38
2022-07-30T06:41:02.538Z,27.53
2022-07-30T06:43:53.862Z,27.63
2022-07-30T06:46:42.385Z,27.71
2022-07-30T06:49:11.595Z,27.87
2022-07-30T06:51:38.657Z,28.01
2022-07-30T06:54:06.421Z,28.18
2022-07-30T06:56:36.075Z,28.27
2022-07-30T06:59:06.657Z,28.41
2022-07-30T07:01:54.407Z,28.55
2022-07-30T07:04:23.958Z,28.67
2022-07-30T07:06:51.006Z,28.80
2022-07-30T07:09:27.473Z,28.92
2022-07-30T07:12:17.719Z,29.02
2022-07-30T07:14:47.150Z,29.14
2022-07-30T07:17:14.301Z,29.26
2022-07-30T07:20:20.881Z,29.37
2022-07-30T07:22:54.614Z,29.35
2022-07-30T07:25:22.133Z,29.40
2022-07-30T07:28:10.897Z,29.41
2022-07-30T07:30:37.994Z,29.43
2022-07-30T07:33:07.853Z,29.48
2022-07-30T07:35:49.207Z,29.55
2022-07-30T07:38:27.166Z,29.69
2022-07-30T07:40:55.572Z,29.79
2022-07-30T07:43:22.919Z,29.90
2022-07-30T07:45:52.832Z,30.02
2022-07-30T07:48:20.660Z,30.13
2022-07-30T07:51:46.760Z,30.19
2022-07-30T07:54:24.120Z,30.28
2022-07-30T07:56:56.751Z,30.37
2022-07-30T07:59:42.573Z,30.48
2022-07-30T08:02:15.687Z,30.63
2022-07-30T08:04:55.305Z,30.79
2022-07-30T08:07:43.558Z,30.95
2022-07-30T08:10:11.465Z,31.01
2022-07-30T08:12:57.692Z,31.05
2022-07-30T08:15:43.890Z,31.16
2022-07-30T08:18:47.424Z,31.27
2022-07-30T08:21:38.217Z,31.28
2022-07-30T08:24:06.816Z,31.32
2022-07-30T08:26:33.938Z,31.39
2022-07-30T08:29:01.585Z,31.45
2022-07-30T08:31:32.194Z,31.41
2022-07-30T08:34:00.385Z,31.41
2022-07-30T08:36:28.414Z,31.44
2022-07-30T08:38:56.484Z,31.47
2022-07-30T08:41:24.729Z,31.53
2022-07-30T08:43:53.299Z,31.55
2022-07-30T08:46:24.806Z,31.65
2022-07-30T08:49:06.382Z,31.78
2022-07-30T08:51:37.591Z,31.84
2022-07-30T08:54:23.271Z,32.00
2022-07-30T08:56:51.095Z,32.12
2022-07-30T08:59:18.517Z,32.23
2022-07-30T09:01:45.986Z,32.29
2022-07-30T09:04:14.818Z,32.39
2022-07-30T09:06:42.854Z,32.28
2022-07-30T09:09:10.629Z,32.40
2022-07-30T09:11:43.094Z,32.45
2022-07-30T09:14:12.642Z,32.58
2022-07-30T09:16:41.263Z,32.52
2022-07-30T09:19:18.225Z,32.53
2022-07-30T09:22:00.690Z,32.53
2022-07-30T09:25:03.987Z,32.63
2022-07-30T09:27:50.454Z,32.76
2022-07-30T09:30:56.466Z,32.82
2022-07-30T09:33:44.793Z,32.90
2022-07-30T09:36:33.547Z,32.91
2022-07-30T09:39:35.748Z,32.89
2022-07-30T09:42:27.347Z,32.95
2022-07-30T09:45:08.675Z,33.20
2022-07-30T09:47:43.246Z,33.34
2022-07-30T09:50:12.642Z,33.31
2022-07-30T09:52:49.326Z,33.26
2022-07-30T09:55:35.778Z,33.28
2022-07-30T09:58:12.820Z,33.32
2022-07-30T10:00:44.721Z,33.43
2022-07-30T10:03:46.713Z,33.40
2022-07-30T10:06:35.748Z,33.43
2022-07-30T10:09:25.601Z,33.51
2022-07-30T10:12:10.358Z,33.70
2022-07-30T10:14:44.056Z,33.78
2022-07-30T10:17:14.035Z,33.94
2022-07-30T10:19:47.227Z,33.98
2022-07-30T10:22:50.611Z,34.08
2022-07-30T10:25:49.127Z,34.17
2022-07-30T10:28:38.811Z,34.33
2022-07-30T10:31:08.417Z,34.44
2022-07-30T10:33:56.163Z,34.54
2022-07-30T10:36:24.517Z,34.52
2022-07-30T10:38:54.573Z,34.56
2022-07-30T10:41:42.686Z,34.58
2022-07-30T10:44:22.552Z,34.59
2022-07-30T10:47:07.634Z,34.65
2022-07-30T10:49:40.488Z,34.68
2022-07-30T10:52:09.239Z,34.73
2022-07-30T10:54:45.697Z,34.85
2022-07-30T10:57:32.409Z,34.96
2022-07-30T11:00:00.717Z,35.15
2022-07-30T11:02:30.680Z,35.30
2022-07-30T11:05:18.742Z,35.49
2022-07-30T11:08:42.645Z,35.68
2022-07-30T11:12:15.955Z,35.92
2022-07-30T11:14:10.579Z,36.00
2022-07-30T11:16:38.015Z,36.14
2022-07-30T11:19:55.276Z,36.38
2022-07-30T11:22:27.497Z,36.59
2022-07-30T11:24:55.742Z,36.75
2022-07-30T11:27:38.844Z,36.99
2022-07-30T11:30:19.111Z,37.22
2022-07-30T11:32:51.565Z,37.26
2022-07-30T11:35:25.779Z,37.18
2022-07-30T11:38:10.234Z,37.20
2022-07-30T11:40:59.692Z,37.20
2022-07-30T11:43:34.886Z,37.26
2022-07-30T11:46:07.249Z,37.48
2022-07-30T11:48:40.064Z,37.77
2022-07-30T11:51:07.394Z,38.03
2022-07-30T11:53:35.517Z,38.06
2022-07-30T11:56:03.993Z,37.85
2022-07-30T11:58:37.474Z,37.84
2022-07-30T12:01:09.433Z,38.26
2022-07-30T12:03:41.405Z,38.70
2022-07-30T12:06:14.388Z,39.03
2022-07-30T12:08:43.393Z,38.99
2022-07-30T12:11:11.049Z,39.00
2022-07-30T12:13:43.775Z,39.23
2022-07-30T12:16:17.756Z,39.62
2022-07-30T12:18:47.423Z,40.14
2022-07-30T12:21:18.906Z,40.10
2022-07-30T12:24:01.209Z,40.05
2022-07-30T12:26:32.479Z,40.25
2022-07-30T12:29:11.078Z,40.72
2022-07-30T12:31:40.334Z,40.99
2022-07-30T12:34:24.315Z,41.33
2022-07-30T12:36:51.965Z,41.60
2022-07-30T12:39:21.487Z,41.67
2022-07-30T12:41:52.304Z,41.58
2022-07-30T12:44:37.690Z,41.81
2022-07-30T12:47:07.449Z,41.57
2022-07-30T12:49:37.734Z,41.75
2022-07-30T12:52:13.534Z,41.99
2022-07-30T12:55:07.501Z,42.33
2022-07-30T12:58:05.509Z,42.37
2022-07-30T13:00:44.485Z,42.71
2022-07-30T13:03:27.264Z,43.05
2022-07-30T13:05:56.482Z,43.18
2022-07-30T13:08:45.664Z,43.60
2022-07-30T13:11:13.028Z,43.96
2022-07-30T13:13:40.119Z,44.08
2022-07-30T13:16:08.399Z,44.29
2022-07-30T13:18:36.879Z,44.60
2022-07-30T13:21:08.262Z,44.50
2022-07-30T13:23:37.385Z,44.76
2022-07-30T13:26:04.844Z,44.88
2022-07-30T13:28:33.474Z,44.85
2022-07-30T13:31:01.724Z,45.01
2022-07-30T13:33:29.611Z,44.79
2022-07-30T13:35:56.792Z,44.75
2022-07-30T13:38:24.652Z,44.71
2022-07-30T13:40:52.117Z,44.68
2022-07-30T13:43:20.229Z,44.82
2022-07-30T13:45:48.371Z,44.99
2022-07-30T13:48:16.446Z,45.09
2022-07-30T13:50:43.697Z,45.03
2022-07-30T13:53:11.926Z,45.25
2022-07-30T13:55:39.635Z,45.44
2022-07-30T13:58:07.280Z,45.30
2022-07-30T14:00:36.789Z,45.37
2022-07-30T14:03:06.914Z,45.73
2022-07-30T14:05:42.324Z,45.92
2022-07-30T14:08:12.129Z,46.18
2022-07-30T14:10:40.817Z,46.58
2022-07-30T14:13:10.473Z,46.61
2022-07-30T14:15:43.477Z,46.34
2022-07-30T14:18:10.428Z,46.33
2022-07-30T14:20:37.893Z,46.36
2022-07-30T14:23:05.062Z,46.51
2022-07-30T14:25:32.395Z,46.56
2022-07-30T14:27:59.368Z,46.76
2022-07-30T14:30:27.468Z,46.78
2022-07-30T14:33:00.387Z,46.74
2022-07-30T14:35:29.396Z,46.43
2022-07-30T14:37:56.307Z,45.60
2022-07-30T14:40:23.958Z,45.56
2022-07-30T14:42:51.431Z,45.51
2022-07-30T14:45:18.704Z,45.78
2022-07-30T14:47:45.698Z,45.91
2022-07-30T14:50:13.840Z,46.10
2022-07-30T14:52:41.215Z,46.35
2022-07-30T14:55:09.936Z,46.27
2022-07-30T14:57:37.736Z,46.11
2022-07-30T15:00:11.651Z,46.25
2022-07-30T15:02:41.537Z,46.40
2022-07-30T15:05:09.361Z,46.39
2022-07-30T15:07:37.378Z,46.42
2022-07-30T15:10:07.515Z,46.91
2022-07-30T15:12:35.091Z,47.31
2022-07-30T15:15:05.856Z,47.84
2022-07-30T15:17:36.030Z,48.01
2022-07-30T15:20:02.960Z,47.65
2022-07-30T15:22:31.564Z,47.88
2022-07-30T15:24:59.274Z,48.18
2022-07-30T15:27:33.677Z,48.41
2022-07-30T15:30:02.179Z,48.16
2022-07-30T15:32:29.268Z,48.11
2022-07-30T15:34:56.670Z,48.54
2022-07-30T15:37:24.216Z,48.65
2022-07-30T15:39:52.071Z,48.77
2022-07-30T15:42:19.043Z,49.27
2022-07-30T15:44:49.106Z,49.29
2022-07-30T15:47:16.312Z,49.60
2022-07-30T15:49:44.707Z,49.81
2022-07-30T15:52:12.034Z,49.39
2022-07-30T15:54:39.389Z,49.05
2022-07-30T15:57:06.423Z,49.22
2022-07-30T15:59:33.913Z,49.17
2022-07-30T16:02:01.234Z,48.72
2022-07-30T16:04:31.772Z,48.36
2022-07-30T16:07:03.860Z,48.06
2022-07-30T16:09:31.438Z,47.52
2022-07-30T16:11:59.445Z,47.10
2022-07-30T16:14:27.757Z,46.96
2022-07-30T16:16:55.214Z,46.75
2022-07-30T16:19:22.756Z,46.85
2022-07-30T16:21:50.007Z,46.64
2022-07-30T16:24:17.263Z,46.93
2022-07-30T16:26:44.475Z,47.05
2022-07-30T16:29:13.990Z,47.22
2022-07-30T16:31:41.316Z,47.16
2022-07-30T16:34:10.133Z,46.75
2022-07-30T16:36:37.401Z,45.67
2022-07-30T16:39:06.117Z,44.75
2022-07-30T16:41:33.365Z,43.82
2022-07-30T16:44:01.785Z,43.22
2022-07-30T16:46:28.775Z,42.53
2022-07-30T16:48:55.998Z,41.38
2022-07-30T16:51:23.898Z,40.63
2022-07-30T16:53:51.401Z,39.76
2022-07-30T16:56:18.415Z,39.34
2022-07-30T16:58:46.366Z,38.89
2022-07-30T17:01:13.440Z,38.46
2022-07-30T17:03:41.173Z,37.86
2022-07-30T17:06:08.850Z,37.17
2022-07-30T17:08:36.408Z,35.73
2022-07-30T17:11:09.499Z,34.43
2022-07-30T17:13:38.201Z,33.63
2022-07-30T17:16:07.191Z,33.73
2022-07-30T17:18:34.628Z,33.27
2022-07-30T17:21:02.301Z,32.92
2022-07-30T17:23:29.564Z,32.86
2022-07-30T17:25:58.085Z,32.50
2022-07-30T17:28:26.779Z,32.01
2022-07-30T17:30:54.495Z,31.72
2022-07-30T17:33:21.779Z,31.21
2022-07-30T17:35:49.177Z,30.97
2022-07-30T17:38:16.853Z,30.85
2022-07-30T17:40:43.886Z,30.68
2022-07-30T17:43:14.594Z,30.54
2022-07-30T17:45:43.259Z,30.47
2022-07-30T17:48:10.395Z,30.35
2022-07-30T17:50:37.927Z,30.27
2022-07-30T17:53:06.260Z,30.21
2022-07-30T17:55:35.459Z,30.10
2022-07-30T17:58:04.464Z,29.97
2022-07-30T18:00:32.585Z,29.96
2022-07-30T18:02:59.569Z,29.89
2022-07-30T18:05:28.225Z,29.77
2022-07-30T18:07:55.199Z,29.73
2022-07-30T18:10:24.117Z,29.60
2022-07-30T18:12:51.277Z,29.46
2022-07-30T18:15:19.315Z,29.26
2022-07-30T18:17:46.742Z,29.19
2022-07-30T18:20:15.525Z,29.08
2022-07-30T18:22:42.941Z,28.86
2022-07-30T18:25:18.640Z,28.80
2022-07-30T18:27:47.371Z,28.43
2022-07-30T18:30:15.235Z,28.37
2022-07-30T18:32:42.948Z,28.27
2022-07-30T18:35:17.795Z,28.20
2022-07-30T18:37:46.125Z,28.16
2022-07-30T18:40:16.411Z,28.20
2022-07-30T18:42:47.879Z,28.26
2022-07-30T18:45:15.268Z,28.30
2022-07-30T18:47:43.944Z,28.30
2022-07-30T18:50:13.732Z,28.37
2022-07-30T18:52:41.711Z,28.41
2022-07-30T18:55:11.428Z,28.42
2022-07-30T18:57:40.193Z,28.44
2022-07-30T19:00:10.465Z,28.45
2022-07-30T19:02:59.184Z,28.50
2022-07-30T19:05:26.230Z,28.54
2022-07-30T19:07:57.517Z,28.50
2022-07-30T19:10:28.402Z,28.47
2022-07-30T19:12:55.468Z,28.44
2022-07-30T19:15:23.352Z,28.41
2022-07-30T19:17:52.263Z,28.34
2022-07-30T19:20:20.119Z,28.27
2022-07-30T19:22:47.112Z,28.18
2022-07-30T19:25:15.691Z,28.13
2022-07-30T19:27:42.647Z,28.05
2022-07-30T19:30:10.533Z,27.98
2022-07-30T19:32:37.764Z,27.94
2022-07-30T19:35:05.650Z,27.86
2022-07-30T19:37:40.908Z,27.72
2022-07-30T19:40:08.360Z,27.68
2022-07-30T19:42:37.037Z,27.58
2022-07-30T19:45:13.064Z,27.47
2022-07-30T19:47:42.253Z,27.39
2022-07-30T19:50:11.209Z,27.34
2022-07-30T19:52:50.970Z,27.22
2022-07-30T19:55:35.041Z,27.20
2022-07-30T19:58:16.241Z,27.17
2022-07-30T20:00:48.505Z,27.09
2022-07-30T20:03:25.593Z,27.03
2022-07-30T20:05:55.002Z,27.04
2022-07-30T20:08:27.310Z,27.03
2022-07-30T20:10:57.614Z,27.04
2022-07-30T20:13:44.769Z,27.01
2022-07-30T20:16:17.966Z,26.99
2022-07-30T20:18:47.532Z,26.91
2022-07-30T20:21:16.785Z,26.91
2022-07-30T20:23:45.415Z,26.87
2022-07-30T20:26:15.148Z,26.88
2022-07-30T20:28:45.672Z,26.87
2022-07-30T20:31:14.004Z,26.87
2022-07-30T20:33:42.991Z,26.87
2022-07-30T20:36:11.716Z,26.84
2022-07-30T20:38:44.712Z,26.79
2022-07-30T20:41:12.653Z,26.75
2022-07-30T20:43:45.966Z,26.72
2022-07-30T20:46:19.840Z,26.69
2022-07-30T20:48:46.889Z,26.70
2022-07-30T20:51:14.849Z,26.73
2022-07-30T20:53:45.064Z,26.72
2022-07-30T20:56:14.657Z,26.77
2022-07-30T20:58:46.074Z,26.80
2022-07-30T21:01:17.651Z,26.77
2022-07-30T21:03:48.066Z,26.81
2022-07-30T21:06:34.808Z,26.82
2022-07-30T21:09:02.101Z,26.79
2022-07-30T21:11:29.642Z,26.80
2022-07-30T21:13:56.767Z,26.68
2022-07-30T21:16:27.383Z,26.58
2022-07-30T21:18:57.993Z,26.46
2022-07-30T21:21:30.737Z,26.43
2022-07-30T21:24:12.422Z,26.38
2022-07-30T21:26:42.686Z,26.31
2022-07-30T21:29:10.320Z,26.25
2022-07-30T21:32:00.391Z,26.10
2022-07-30T21:37:15.803Z,25.91
2022-07-30T21:39:43.774Z,25.82
2022-07-30T21:42:11.487Z,25.73
2022-07-30T21:44:38.977Z,25.64
2022-07-30T21:47:09.993Z,25.54
2022-07-30T21:49:38.151Z,25.49
2022-07-30T21:52:06.207Z,25.48
2022-07-30T21:54:38.972Z,25.44
2022-07-30T21:57:26.484Z,25.41
2022-07-30T21:59:58.625Z,25.37
2022-07-30T22:02:26.353Z,25.33
2022-07-30T22:04:55.467Z,25.22
2022-07-30T22:07:22.954Z,25.13
2022-07-30T22:09:51.730Z,25.04
2022-07-30T22:12:19.045Z,24.99
2022-07-30T22:14:49.459Z,24.88
2022-07-30T22:17:23.820Z,24.78
2022-07-30T22:20:08.898Z,24.70
2022-07-30T22:22:40.198Z,24.68
2022-07-30T22:25:10.527Z,24.70
2022-07-30T22:27:56.788Z,24.75
2022-07-30T22:30:27.276Z,24.80
2022-07-30T22:33:06.865Z,24.85
2022-07-30T22:35:36.109Z,24.91
2022-07-30T22:38:04.860Z,24.95
2022-07-30T22:40:32.910Z,24.96
2022-07-30T22:43:07.788Z,24.94
2022-07-30T22:45:48.669Z,24.95
2022-07-30T22:48:24.529Z,24.81
2022-07-30T22:50:56.210Z,24.75
2022-07-30T22:54:11.173Z,24.67
2022-07-30T22:56:15.379Z,24.60
2022-07-30T22:58:43.214Z,24.61
2022-07-30T23:01:10.957Z,24.61
2022-07-30T23:03:42.079Z,24.60
2022-07-30T23:06:14.682Z,24.60
2022-07-30T23:08:43.601Z,24.60
2022-07-30T23:11:11.599Z,24.58
2022-07-30T23:12:31.725Z,25.93
2022-07-30T23:13:39.658Z,24.61
2022-07-30T23:16:06.931Z,24.60
2022-07-30T23:18:38.124Z,24.59
2022-07-30T23:21:05.877Z,24.56
2022-07-30T23:23:34.082Z,24.52
2022-07-30T23:26:05.966Z,24.55
2022-07-30T23:28:38.023Z,24.54
2022-07-30T23:31:05.489Z,24.51
2022-07-30T23:33:32.744Z,24.49
2022-07-30T23:36:04.839Z,24.47
2022-07-30T23:38:32.512Z,24.44
2022-07-30T23:41:02.192Z,24.41
2022-07-30T23:43:33.733Z,24.38
2022-07-30T23:46:00.995Z,24.34
2022-07-30T23:48:28.461Z,24.31
2022-07-30T23:50:56.019Z,24.25
2022-07-30T23:53:23.239Z,24.21
2022-07-30T23:55:51.007Z,24.17
2022-07-30T23:58:18.889Z,24.12
